sensor_id;sensor_type;location;lat;lon;timestamp;P1;durP1;ratioP1;P2;durP2;ratioP2
11931;SDS011;6025;51.368;6.788;2023-03-01T00:03:15;4.90;;;4.13;;
11931;SDS011;6025;51.368;6.788;2023-03-01T00:08:07;5.90;;;3.90;;
11931;SDS011;6025;51.368;6.788;2023-03-01T00:12:58;5.73;;;3.87;;
11931;SDS011;6025;51.368;6.788;2023-03-01T00:17:50;6.00;;;4.20;;
11931;SDS011;6025;51.368;6.788;2023-03-01T00:22:43;4.90;;;3.80;;
11931;SDS011;6025;51.368;6.788;2023-03-01T00:27:34;5.03;;;3.80;;
11931;SDS011;6025;51.368;6.788;2023-03-01T00:32:26;4.50;;;3.70;;
11931;SDS011;6025;51.368;6.788;2023-03-01T00:37:17;6.97;;;4.23;;
11931;SDS011;6025;51.368;6.788;2023-03-01T00:42:10;6.73;;;4.43;;
11931;SDS011;6025;51.368;6.788;2023-03-01T00:47:02;5.33;;;4.20;;
11931;SDS011;6025;51.368;6.788;2023-03-01T00:51:53;5.60;;;4.10;;
11931;SDS011;6025;51.368;6.788;2023-03-01T00:56:45;5.97;;;4.43;;
11931;SDS011;6025;51.368;6.788;2023-03-01T01:01:38;7.30;;;4.40;;
11931;SDS011;6025;51.368;6.788;2023-03-01T01:06:30;6.60;;;4.27;;
11931;SDS011;6025;51.368;6.788;2023-03-01T01:11:23;5.37;;;4.00;;
11931;SDS011;6025;51.368;6.788;2023-03-01T01:16:17;6.97;;;4.33;;
11931;SDS011;6025;51.368;6.788;2023-03-01T01:21:11;8.00;;;4.20;;
11931;SDS011;6025;51.368;6.788;2023-03-01T01:26:05;4.93;;;3.97;;
11931;SDS011;6025;51.368;6.788;2023-03-01T01:30:57;4.73;;;4.03;;
11931;SDS011;6025;51.368;6.788;2023-03-01T01:35:48;7.57;;;4.43;;
11931;SDS011;6025;51.368;6.788;2023-03-01T01:40:44;6.30;;;4.30;;
11931;SDS011;6025;51.368;6.788;2023-03-01T01:45:37;6.77;;;4.40;;
11931;SDS011;6025;51.368;6.788;2023-03-01T01:50:28;6.73;;;4.13;;
11931;SDS011;6025;51.368;6.788;2023-03-01T01:55:28;6.83;;;4.50;;
11931;SDS011;6025;51.368;6.788;2023-03-01T02:00:22;6.33;;;4.73;;
11931;SDS011;6025;51.368;6.788;2023-03-01T02:05:15;6.33;;;4.43;;
11931;SDS011;6025;51.368;6.788;2023-03-01T02:10:09;6.37;;;4.40;;
11931;SDS011;6025;51.368;6.788;2023-03-01T02:15:01;5.87;;;4.50;;
11931;SDS011;6025;51.368;6.788;2023-03-01T02:20:01;7.40;;;5.07;;
11931;SDS011;6025;51.368;6.788;2023-03-01T02:25:01;5.63;;;4.53;;
11931;SDS011;6025;51.368;6.788;2023-03-01T02:30:00;5.53;;;4.10;;
11931;SDS011;6025;51.368;6.788;2023-03-01T02:34:52;5.53;;;4.50;;
11931;SDS011;6025;51.368;6.788;2023-03-01T02:39:44;6.23;;;4.70;;
11931;SDS011;6025;51.368;6.788;2023-03-01T02:44:38;6.47;;;4.80;;
11931;SDS011;6025;51.368;6.788;2023-03-01T02:49:32;6.50;;;4.53;;
11931;SDS011;6025;51.368;6.788;2023-03-01T02:54:25;5.00;;;4.30;;
11931;SDS011;6025;51.368;6.788;2023-03-01T02:59:21;6.40;;;4.97;;
11931;SDS011;6025;51.368;6.788;2023-03-01T03:04:14;6.67;;;4.80;;
11931;SDS011;6025;51.368;6.788;2023-03-01T03:09:09;5.83;;;4.47;;
11931;SDS011;6025;51.368;6.788;2023-03-01T03:14:00;6.23;;;4.70;;
11931;SDS011;6025;51.368;6.788;2023-03-01T03:18:52;6.67;;;4.90;;
11931;SDS011;6025;51.368;6.788;2023-03-01T03:23:43;7.17;;;4.77;;
11931;SDS011;6025;51.368;6.788;2023-03-01T03:28:36;7.20;;;4.97;;
11931;SDS011;6025;51.368;6.788;2023-03-01T03:33:29;7.37;;;4.80;;
11931;SDS011;6025;51.368;6.788;2023-03-01T03:38:21;5.83;;;4.63;;
11931;SDS011;6025;51.368;6.788;2023-03-01T03:43:14;6.17;;;4.80;;
11931;SDS011;6025;51.368;6.788;2023-03-01T03:48:08;6.73;;;4.77;;
11931;SDS011;6025;51.368;6.788;2023-03-01T03:53:01;6.40;;;4.93;;
11931;SDS011;6025;51.368;6.788;2023-03-01T03:57:54;6.27;;;4.63;;
11931;SDS011;6025;51.368;6.788;2023-03-01T04:02:48;7.33;;;5.03;;
11931;SDS011;6025;51.368;6.788;2023-03-01T04:07:41;6.27;;;4.70;;
11931;SDS011;6025;51.368;6.788;2023-03-01T04:12:33;6.73;;;4.63;;
11931;SDS011;6025;51.368;6.788;2023-03-01T04:17:25;6.43;;;4.57;;
11931;SDS011;6025;51.368;6.788;2023-03-01T04:22:16;6.00;;;4.80;;
11931;SDS011;6025;51.368;6.788;2023-03-01T04:27:09;5.43;;;4.53;;
11931;SDS011;6025;51.368;6.788;2023-03-01T04:32:01;7.07;;;4.90;;
11931;SDS011;6025;51.368;6.788;2023-03-01T04:36:53;5.67;;;4.57;;
11931;SDS011;6025;51.368;6.788;2023-03-01T04:41:44;5.87;;;4.67;;
11931;SDS011;6025;51.368;6.788;2023-03-01T04:46:37;6.23;;;4.70;;
11931;SDS011;6025;51.368;6.788;2023-03-01T04:51:29;7.63;;;4.87;;
11931;SDS011;6025;51.368;6.788;2023-03-01T04:56:22;6.67;;;4.67;;
11931;SDS011;6025;51.368;6.788;2023-03-01T05:01:14;6.10;;;4.43;;
11931;SDS011;6025;51.368;6.788;2023-03-01T05:06:08;7.17;;;5.10;;
11931;SDS011;6025;51.368;6.788;2023-03-01T05:11:00;8.47;;;4.73;;
11931;SDS011;6025;51.368;6.788;2023-03-01T05:15:53;7.03;;;5.00;;
11931;SDS011;6025;51.368;6.788;2023-03-01T05:20:46;7.03;;;5.23;;
11931;SDS011;6025;51.368;6.788;2023-03-01T05:25:39;6.13;;;4.47;;
11931;SDS011;6025;51.368;6.788;2023-03-01T05:30:31;7.00;;;4.70;;
11931;SDS011;6025;51.368;6.788;2023-03-01T05:35:23;6.03;;;4.53;;
11931;SDS011;6025;51.368;6.788;2023-03-01T05:40:16;6.47;;;4.80;;
11931;SDS011;6025;51.368;6.788;2023-03-01T05:45:10;5.17;;;4.50;;
11931;SDS011;6025;51.368;6.788;2023-03-01T05:50:03;5.20;;;4.60;;
11931;SDS011;6025;51.368;6.788;2023-03-01T05:54:57;6.97;;;4.87;;
11931;SDS011;6025;51.368;6.788;2023-03-01T05:59:48;6.80;;;5.13;;
11931;SDS011;6025;51.368;6.788;2023-03-01T06:04:41;7.90;;;4.97;;
11931;SDS011;6025;51.368;6.788;2023-03-01T06:09:33;6.83;;;4.90;;
11931;SDS011;6025;51.368;6.788;2023-03-01T06:14:24;5.60;;;4.83;;
11931;SDS011;6025;51.368;6.788;2023-03-01T06:19:16;8.50;;;5.10;;
11931;SDS011;6025;51.368;6.788;2023-03-01T06:24:09;7.23;;;4.73;;
11931;SDS011;6025;51.368;6.788;2023-03-01T06:29:00;10.53;;;4.93;;
11931;SDS011;6025;51.368;6.788;2023-03-01T06:33:52;6.67;;;5.23;;
11931;SDS011;6025;51.368;6.788;2023-03-01T06:38:43;5.80;;;4.80;;
11931;SDS011;6025;51.368;6.788;2023-03-01T06:43:36;6.70;;;5.00;;
11931;SDS011;6025;51.368;6.788;2023-03-01T06:48:28;7.57;;;4.93;;
11931;SDS011;6025;51.368;6.788;2023-03-01T06:53:19;5.60;;;4.70;;
11931;SDS011;6025;51.368;6.788;2023-03-01T06:58:11;7.53;;;5.47;;
11931;SDS011;6025;51.368;6.788;2023-03-01T07:03:04;7.40;;;4.90;;
11931;SDS011;6025;51.368;6.788;2023-03-01T07:07:55;6.73;;;5.00;;
11931;SDS011;6025;51.368;6.788;2023-03-01T07:12:47;5.47;;;4.97;;
11931;SDS011;6025;51.368;6.788;2023-03-01T07:17:38;7.07;;;5.47;;
11931;SDS011;6025;51.368;6.788;2023-03-01T07:22:31;7.60;;;5.23;;
11931;SDS011;6025;51.368;6.788;2023-03-01T07:27:23;6.90;;;5.43;;
11931;SDS011;6025;51.368;6.788;2023-03-01T07:32:14;7.13;;;5.17;;
11931;SDS011;6025;51.368;6.788;2023-03-01T07:37:06;7.80;;;5.67;;
11931;SDS011;6025;51.368;6.788;2023-03-01T07:41:58;6.03;;;5.43;;
11931;SDS011;6025;51.368;6.788;2023-03-01T07:46:50;7.73;;;5.13;;
11931;SDS011;6025;51.368;6.788;2023-03-01T07:51:46;7.50;;;5.67;;
11931;SDS011;6025;51.368;6.788;2023-03-01T07:56:37;6.30;;;5.33;;
11931;SDS011;6025;51.368;6.788;2023-03-01T08:01:32;6.87;;;5.00;;
11931;SDS011;6025;51.368;6.788;2023-03-01T08:06:23;7.30;;;5.53;;
11931;SDS011;6025;51.368;6.788;2023-03-01T08:11:15;6.57;;;5.17;;
11931;SDS011;6025;51.368;6.788;2023-03-01T08:16:07;6.20;;;5.30;;
11931;SDS011;6025;51.368;6.788;2023-03-01T08:21:02;9.77;;;5.33;;
11931;SDS011;6025;51.368;6.788;2023-03-01T08:25:55;5.70;;;5.03;;
11931;SDS011;6025;51.368;6.788;2023-03-01T08:30:54;6.73;;;4.93;;
11931;SDS011;6025;51.368;6.788;2023-03-01T08:35:45;6.90;;;4.87;;
11931;SDS011;6025;51.368;6.788;2023-03-01T08:40:38;6.90;;;4.90;;
11931;SDS011;6025;51.368;6.788;2023-03-01T08:45:30;5.80;;;4.80;;
11931;SDS011;6025;51.368;6.788;2023-03-01T08:50:21;8.10;;;5.10;;
11931;SDS011;6025;51.368;6.788;2023-03-01T08:55:14;6.47;;;5.03;;
11931;SDS011;6025;51.368;6.788;2023-03-01T09:00:09;6.57;;;5.30;;
11931;SDS011;6025;51.368;6.788;2023-03-01T09:05:05;6.13;;;4.90;;
11931;SDS011;6025;51.368;6.788;2023-03-01T09:09:56;7.20;;;5.27;;
11931;SDS011;6025;51.368;6.788;2023-03-01T09:14:48;7.00;;;5.53;;
11931;SDS011;6025;51.368;6.788;2023-03-01T09:19:41;8.13;;;5.70;;
11931;SDS011;6025;51.368;6.788;2023-03-01T09:24:32;7.50;;;4.90;;
11931;SDS011;6025;51.368;6.788;2023-03-01T09:29:24;6.63;;;5.17;;
11931;SDS011;6025;51.368;6.788;2023-03-01T09:34:15;8.10;;;5.07;;
11931;SDS011;6025;51.368;6.788;2023-03-01T09:39:14;6.60;;;4.67;;
11931;SDS011;6025;51.368;6.788;2023-03-01T09:44:09;6.50;;;5.00;;
11931;SDS011;6025;51.368;6.788;2023-03-01T09:49:05;8.50;;;5.23;;
11931;SDS011;6025;51.368;6.788;2023-03-01T09:54:01;7.10;;;4.77;;
11931;SDS011;6025;51.368;6.788;2023-03-01T09:58:56;6.93;;;5.10;;
11931;SDS011;6025;51.368;6.788;2023-03-01T10:03:55;7.27;;;4.73;;
11931;SDS011;6025;51.368;6.788;2023-03-01T10:08:53;7.07;;;5.30;;
11931;SDS011;6025;51.368;6.788;2023-03-01T10:13:49;7.27;;;4.77;;
11931;SDS011;6025;51.368;6.788;2023-03-01T10:18:47;8.20;;;5.37;;
11931;SDS011;6025;51.368;6.788;2023-03-01T10:23:44;5.87;;;4.63;;
11931;SDS011;6025;51.368;6.788;2023-03-01T10:28:39;7.87;;;4.70;;
11931;SDS011;6025;51.368;6.788;2023-03-01T10:33:37;6.73;;;4.80;;
11931;SDS011;6025;51.368;6.788;2023-03-01T10:38:33;5.87;;;4.40;;
11931;SDS011;6025;51.368;6.788;2023-03-01T10:43:43;6.37;;;5.20;;
11931;SDS011;6025;51.368;6.788;2023-03-01T10:48:37;6.30;;;5.20;;
11931;SDS011;6025;51.368;6.788;2023-03-01T10:53:29;6.43;;;4.50;;
11931;SDS011;6025;51.368;6.788;2023-03-01T10:58:24;5.97;;;4.50;;
11931;SDS011;6025;51.368;6.788;2023-03-01T11:03:17;7.07;;;4.97;;
11931;SDS011;6025;51.368;6.788;2023-03-01T11:08:10;6.17;;;4.40;;
11931;SDS011;6025;51.368;6.788;2023-03-01T11:13:07;6.30;;;4.80;;
11931;SDS011;6025;51.368;6.788;2023-03-01T11:17:59;5.77;;;4.73;;
11931;SDS011;6025;51.368;6.788;2023-03-01T11:22:52;5.77;;;4.77;;
11931;SDS011;6025;51.368;6.788;2023-03-01T11:27:45;6.03;;;4.43;;
11931;SDS011;6025;51.368;6.788;2023-03-01T11:32:40;7.57;;;4.60;;
11931;SDS011;6025;51.368;6.788;2023-03-01T11:37:34;6.00;;;4.70;;
11931;SDS011;6025;51.368;6.788;2023-03-01T11:42:28;5.07;;;4.57;;
11931;SDS011;6025;51.368;6.788;2023-03-01T11:47:29;7.75;;;5.43;;
11931;SDS011;6025;51.368;6.788;2023-03-01T11:52:34;6.53;;;5.20;;
11931;SDS011;6025;51.368;6.788;2023-03-01T11:57:38;6.15;;;5.05;;
11931;SDS011;6025;51.368;6.788;2023-03-01T12:02:39;5.40;;;4.85;;
11931;SDS011;6025;51.368;6.788;2023-03-01T12:07:38;10.70;;;5.10;;
11931;SDS011;6025;51.368;6.788;2023-03-01T12:12:38;6.28;;;5.20;;
11931;SDS011;6025;51.368;6.788;2023-03-01T12:17:49;8.23;;;5.40;;
11931;SDS011;6025;51.368;6.788;2023-03-01T12:23:03;5.95;;;5.32;;
11931;SDS011;6025;51.368;6.788;2023-03-01T12:28:17;7.70;;;5.80;;
11931;SDS011;6025;51.368;6.788;2023-03-01T12:33:19;5.80;;;4.93;;
11931;SDS011;6025;51.368;6.788;2023-03-01T12:38:17;6.75;;;5.13;;
11931;SDS011;6025;51.368;6.788;2023-03-01T12:43:17;6.97;;;4.88;;
11931;SDS011;6025;51.368;6.788;2023-03-01T12:48:23;7.28;;;5.00;;
11931;SDS011;6025;51.368;6.788;2023-03-01T12:53:23;6.55;;;5.35;;
11931;SDS011;6025;51.368;6.788;2023-03-01T12:58:17;7.55;;;4.88;;
11931;SDS011;6025;51.368;6.788;2023-03-01T13:03:18;6.60;;;4.90;;
11931;SDS011;6025;51.368;6.788;2023-03-01T13:08:15;5.65;;;5.05;;
11931;SDS011;6025;51.368;6.788;2023-03-01T13:13:12;6.40;;;5.13;;
11931;SDS011;6025;51.368;6.788;2023-03-01T13:18:27;6.72;;;5.20;;
11931;SDS011;6025;51.368;6.788;2023-03-01T13:23:28;6.05;;;4.80;;
11931;SDS011;6025;51.368;6.788;2023-03-01T13:28:35;7.45;;;5.40;;
11931;SDS011;6025;51.368;6.788;2023-03-01T13:33:51;6.78;;;5.25;;
11931;SDS011;6025;51.368;6.788;2023-03-01T13:38:48;8.98;;;5.40;;
11931;SDS011;6025;51.368;6.788;2023-03-01T13:43:47;7.30;;;6.03;;
11931;SDS011;6025;51.368;6.788;2023-03-01T13:48:39;8.27;;;6.18;;
11931;SDS011;6025;51.368;6.788;2023-03-01T13:53:31;6.75;;;5.18;;
11931;SDS011;6025;51.368;6.788;2023-03-01T13:58:28;6.78;;;5.30;;
11931;SDS011;6025;51.368;6.788;2023-03-01T14:03:20;7.43;;;5.57;;
11931;SDS011;6025;51.368;6.788;2023-03-01T14:08:20;5.95;;;5.38;;
11931;SDS011;6025;51.368;6.788;2023-03-01T14:13:17;6.30;;;5.57;;
11931;SDS011;6025;51.368;6.788;2023-03-01T14:18:18;7.53;;;5.65;;
11931;SDS011;6025;51.368;6.788;2023-03-01T14:23:15;7.10;;;6.13;;
11931;SDS011;6025;51.368;6.788;2023-03-01T14:28:13;7.18;;;5.68;;
11931;SDS011;6025;51.368;6.788;2023-03-01T14:33:19;6.68;;;5.85;;
11931;SDS011;6025;51.368;6.788;2023-03-01T14:38:19;6.93;;;5.78;;
11931;SDS011;6025;51.368;6.788;2023-03-01T14:43:13;8.43;;;5.60;;
11931;SDS011;6025;51.368;6.788;2023-03-01T14:48:08;8.30;;;6.10;;
11931;SDS011;6025;51.368;6.788;2023-03-01T14:53:04;7.75;;;5.65;;
11931;SDS011;6025;51.368;6.788;2023-03-01T14:57:57;6.82;;;6.22;;
11931;SDS011;6025;51.368;6.788;2023-03-01T15:02:50;7.30;;;6.30;;
11931;SDS011;6025;51.368;6.788;2023-03-01T15:07:43;9.02;;;7.28;;
11931;SDS011;6025;51.368;6.788;2023-03-01T15:12:40;10.77;;;6.80;;
11931;SDS011;6025;51.368;6.788;2023-03-01T15:17:33;8.20;;;6.53;;
11931;SDS011;6025;51.368;6.788;2023-03-01T15:22:26;10.13;;;6.07;;
11931;SDS011;6025;51.368;6.788;2023-03-01T15:27:18;8.25;;;5.47;;
11931;SDS011;6025;51.368;6.788;2023-03-01T15:32:24;8.85;;;5.47;;
11931;SDS011;6025;51.368;6.788;2023-03-01T15:42:37;7.23;;;5.50;;
11931;SDS011;6025;51.368;6.788;2023-03-01T15:47:31;7.13;;;4.97;;
11931;SDS011;6025;51.368;6.788;2023-03-01T15:52:23;9.07;;;4.87;;
11931;SDS011;6025;51.368;6.788;2023-03-01T15:57:19;6.27;;;4.80;;
11931;SDS011;6025;51.368;6.788;2023-03-01T16:02:11;7.33;;;5.07;;
11931;SDS011;6025;51.368;6.788;2023-03-01T16:07:04;7.27;;;5.07;;
11931;SDS011;6025;51.368;6.788;2023-03-01T16:11:56;6.40;;;4.80;;
11931;SDS011;6025;51.368;6.788;2023-03-01T16:16:47;6.67;;;4.77;;
11931;SDS011;6025;51.368;6.788;2023-03-01T16:21:39;6.10;;;4.80;;
11931;SDS011;6025;51.368;6.788;2023-03-01T16:26:33;6.37;;;4.70;;
11931;SDS011;6025;51.368;6.788;2023-03-01T16:31:25;5.67;;;4.60;;
11931;SDS011;6025;51.368;6.788;2023-03-01T16:36:17;6.37;;;4.57;;
11931;SDS011;6025;51.368;6.788;2023-03-01T16:41:11;7.37;;;4.77;;
11931;SDS011;6025;51.368;6.788;2023-03-01T16:46:10;7.13;;;5.17;;
11931;SDS011;6025;51.368;6.788;2023-03-01T16:51:02;8.00;;;4.43;;
11931;SDS011;6025;51.368;6.788;2023-03-01T16:55:54;6.30;;;4.70;;
11931;SDS011;6025;51.368;6.788;2023-03-01T17:00:46;6.47;;;4.30;;
11931;SDS011;6025;51.368;6.788;2023-03-01T17:05:40;8.43;;;3.80;;
11931;SDS011;6025;51.368;6.788;2023-03-01T17:10:32;7.07;;;4.17;;
11931;SDS011;6025;51.368;6.788;2023-03-01T17:15:24;5.43;;;3.90;;
11931;SDS011;6025;51.368;6.788;2023-03-01T17:20:15;5.87;;;4.37;;
11931;SDS011;6025;51.368;6.788;2023-03-01T17:25:09;7.27;;;4.50;;
11931;SDS011;6025;51.368;6.788;2023-03-01T17:30:02;5.83;;;4.00;;
11931;SDS011;6025;51.368;6.788;2023-03-01T17:34:54;5.97;;;4.00;;
11931;SDS011;6025;51.368;6.788;2023-03-01T17:39:45;6.50;;;4.40;;
11931;SDS011;6025;51.368;6.788;2023-03-01T17:44:38;9.17;;;4.20;;
11931;SDS011;6025;51.368;6.788;2023-03-01T17:49:30;5.80;;;4.17;;
11931;SDS011;6025;51.368;6.788;2023-03-01T17:54:22;7.90;;;4.30;;
11931;SDS011;6025;51.368;6.788;2023-03-01T17:59:13;6.30;;;3.93;;
11931;SDS011;6025;51.368;6.788;2023-03-01T18:04:08;5.70;;;4.20;;
11931;SDS011;6025;51.368;6.788;2023-03-01T18:08:59;6.20;;;3.93;;
11931;SDS011;6025;51.368;6.788;2023-03-01T18:13:51;7.30;;;4.33;;
11931;SDS011;6025;51.368;6.788;2023-03-01T18:18:43;7.40;;;4.20;;
11931;SDS011;6025;51.368;6.788;2023-03-01T18:23:37;7.00;;;4.60;;
11931;SDS011;6025;51.368;6.788;2023-03-01T18:28:29;8.33;;;4.33;;
11931;SDS011;6025;51.368;6.788;2023-03-01T18:33:21;7.00;;;4.53;;
11931;SDS011;6025;51.368;6.788;2023-03-01T18:38:12;7.67;;;4.10;;
11931;SDS011;6025;51.368;6.788;2023-03-01T18:43:05;9.77;;;4.43;;
11931;SDS011;6025;51.368;6.788;2023-03-01T18:47:57;7.30;;;4.13;;
11931;SDS011;6025;51.368;6.788;2023-03-01T18:52:48;7.00;;;4.40;;
11931;SDS011;6025;51.368;6.788;2023-03-01T18:57:40;5.37;;;4.03;;
11931;SDS011;6025;51.368;6.788;2023-03-01T19:02:33;6.30;;;4.23;;
11931;SDS011;6025;51.368;6.788;2023-03-01T19:07:24;6.37;;;4.23;;
11931;SDS011;6025;51.368;6.788;2023-03-01T19:12:16;5.90;;;3.97;;
11931;SDS011;6025;51.368;6.788;2023-03-01T19:17:07;6.00;;;4.20;;
11931;SDS011;6025;51.368;6.788;2023-03-01T19:22:00;4.97;;;4.00;;
11931;SDS011;6025;51.368;6.788;2023-03-01T19:26:52;5.33;;;3.70;;
11931;SDS011;6025;51.368;6.788;2023-03-01T19:31:44;6.33;;;3.77;;
11931;SDS011;6025;51.368;6.788;2023-03-01T19:36:36;5.30;;;3.70;;
11931;SDS011;6025;51.368;6.788;2023-03-01T19:41:28;6.07;;;4.03;;
11931;SDS011;6025;51.368;6.788;2023-03-01T19:46:20;5.10;;;3.73;;
11931;SDS011;6025;51.368;6.788;2023-03-01T19:51:11;7.33;;;4.50;;
11931;SDS011;6025;51.368;6.788;2023-03-01T19:56:03;8.97;;;4.73;;
11931;SDS011;6025;51.368;6.788;2023-03-01T20:00:57;5.90;;;4.20;;
11931;SDS011;6025;51.368;6.788;2023-03-01T20:05:49;6.30;;;4.43;;
11931;SDS011;6025;51.368;6.788;2023-03-01T20:10:41;6.20;;;4.27;;
11931;SDS011;6025;51.368;6.788;2023-03-01T20:15:32;8.10;;;4.03;;
11931;SDS011;6025;51.368;6.788;2023-03-01T20:20:25;5.77;;;3.90;;
11931;SDS011;6025;51.368;6.788;2023-03-01T20:25:17;7.37;;;3.87;;
11931;SDS011;6025;51.368;6.788;2023-03-01T20:30:09;7.27;;;4.03;;
11931;SDS011;6025;51.368;6.788;2023-03-01T20:35:01;4.93;;;3.80;;
11931;SDS011;6025;51.368;6.788;2023-03-01T20:39:55;7.50;;;4.20;;
11931;SDS011;6025;51.368;6.788;2023-03-01T20:44:46;6.13;;;4.10;;
11931;SDS011;6025;51.368;6.788;2023-03-01T20:49:38;6.13;;;4.30;;
11931;SDS011;6025;51.368;6.788;2023-03-01T20:54:30;6.33;;;4.30;;
11931;SDS011;6025;51.368;6.788;2023-03-01T20:59:22;6.27;;;4.40;;
11931;SDS011;6025;51.368;6.788;2023-03-01T21:04:14;6.43;;;3.80;;
11931;SDS011;6025;51.368;6.788;2023-03-01T21:09:06;7.13;;;4.20;;
11931;SDS011;6025;51.368;6.788;2023-03-01T21:13:58;6.50;;;3.90;;
11931;SDS011;6025;51.368;6.788;2023-03-01T21:18:51;6.30;;;4.20;;
11931;SDS011;6025;51.368;6.788;2023-03-01T21:23:43;6.40;;;3.93;;
11931;SDS011;6025;51.368;6.788;2023-03-01T21:28:35;7.57;;;4.30;;
11931;SDS011;6025;51.368;6.788;2023-03-01T21:33:27;5.10;;;3.70;;
11931;SDS011;6025;51.368;6.788;2023-03-01T21:38:20;6.70;;;4.00;;
11931;SDS011;6025;51.368;6.788;2023-03-01T21:43:11;5.57;;;3.97;;
11931;SDS011;6025;51.368;6.788;2023-03-01T21:48:03;6.23;;;3.87;;
11931;SDS011;6025;51.368;6.788;2023-03-01T21:52:55;4.87;;;3.50;;
11931;SDS011;6025;51.368;6.788;2023-03-01T21:57:48;7.53;;;4.03;;
11931;SDS011;6025;51.368;6.788;2023-03-01T22:02:39;5.53;;;3.73;;
11931;SDS011;6025;51.368;6.788;2023-03-01T22:07:31;6.70;;;3.77;;
11931;SDS011;6025;51.368;6.788;2023-03-01T22:12:22;4.93;;;3.67;;
11931;SDS011;6025;51.368;6.788;2023-03-01T22:17:15;6.17;;;4.20;;
11931;SDS011;6025;51.368;6.788;2023-03-01T22:22:07;6.70;;;3.67;;
11931;SDS011;6025;51.368;6.788;2023-03-01T22:26:59;6.10;;;3.50;;
11931;SDS011;6025;51.368;6.788;2023-03-01T22:31:51;4.60;;;3.43;;
11931;SDS011;6025;51.368;6.788;2023-03-01T22:36:44;5.40;;;3.47;;
11931;SDS011;6025;51.368;6.788;2023-03-01T22:41:37;6.53;;;3.93;;
11931;SDS011;6025;51.368;6.788;2023-03-01T22:46:33;5.17;;;3.60;;
11931;SDS011;6025;51.368;6.788;2023-03-01T22:51:25;5.07;;;3.60;;
11931;SDS011;6025;51.368;6.788;2023-03-01T22:56:21;6.27;;;3.60;;
11931;SDS011;6025;51.368;6.788;2023-03-01T23:01:14;5.53;;;3.30;;
11931;SDS011;6025;51.368;6.788;2023-03-01T23:06:06;4.30;;;3.30;;
11931;SDS011;6025;51.368;6.788;2023-03-01T23:10:58;6.17;;;3.30;;
11931;SDS011;6025;51.368;6.788;2023-03-01T23:15:52;4.83;;;3.20;;
11931;SDS011;6025;51.368;6.788;2023-03-01T23:20:44;5.47;;;3.43;;
11931;SDS011;6025;51.368;6.788;2023-03-01T23:25:36;4.60;;;3.20;;
11931;SDS011;6025;51.368;6.788;2023-03-01T23:30:27;5.33;;;3.80;;
11931;SDS011;6025;51.368;6.788;2023-03-01T23:35:20;4.53;;;3.50;;
11931;SDS011;6025;51.368;6.788;2023-03-01T23:40:12;5.03;;;3.70;;
11931;SDS011;6025;51.368;6.788;2023-03-01T23:45:04;5.73;;;3.30;;
11931;SDS011;6025;51.368;6.788;2023-03-01T23:49:56;5.37;;;3.67;;
11931;SDS011;6025;51.368;6.788;2023-03-01T23:54:49;4.73;;;3.63;;
11931;SDS011;6025;51.368;6.788;2023-03-01T23:59:41;6.00;;;3.43;;
